UPSVAC Airport Information Service

Kuwait International Airport

ICAO: OKBK Country: Kuwait,AS
Latitude: 29.2267 Longitude: 47.9797
Latest Arrival : UPSWT1204 (LWSK-OKBK) Latest Departure : UPSWT1205 (OKBK-VABB)


WX CaptureLIVE
Data provided by noaa.gov | Fetched at 23:38:48

METAR : OKBK 142300Z 33014KT 7000 SKC 36/06 Q0997 NOSIG

TAF : OKBK 141645Z 1418/1524 34020G30KT 6000 NSC TEMPO 1418/1423 3000 BLDU


Runway Data for OKBK
Data provided by openaviationdata.com

Runway ID Mag Var Hdg Length Elevation Surface ILS Freq ILS Id ILS Slope
15L 2 152° 11509 ft 168 ft Asphalt 110.1 IKIC 3
15R 2 152° 11181 ft 168 ft Concrete 111.3 IKIB 3
33L 2 332° 11181 ft 168 ft Concrete 109.5 IKIA 3
33R 2 332° 11509 ft 168 ft Asphalt 110.5 IKID 3

Kuwait International Airport, Kuwait,AS
Use only for reference purposes



Not for navigational purposes.